createdAt,value
2018-06-04T00:03:31.120Z,5.67
2018-06-04T00:08:33.715Z,5.77
2018-06-04T00:13:36.331Z,5.20
2018-06-04T00:18:38.846Z,5.40
2018-06-04T00:23:41.358Z,6.87
2018-06-04T00:28:43.960Z,4.53
2018-06-04T00:33:46.564Z,4.80
2018-06-04T00:38:49.160Z,4.77
2018-06-04T00:43:51.740Z,5.00
2018-06-04T00:48:54.349Z,5.47
2018-06-04T00:53:56.955Z,4.77
2018-06-04T00:58:59.567Z,6.20
2018-06-04T01:04:03.031Z,5.87
2018-06-04T01:09:06.986Z,8.43
2018-06-04T01:14:09.571Z,5.00
2018-06-04T01:19:12.196Z,7.03
2018-06-04T01:24:14.848Z,5.60
2018-06-04T01:29:17.443Z,4.87
2018-06-04T01:34:20.053Z,4.70
2018-06-04T01:39:22.648Z,5.47
2018-06-04T01:44:25.245Z,5.60
2018-06-04T01:49:27.875Z,7.70
2018-06-04T01:54:30.519Z,5.93
2018-06-04T01:59:33.142Z,7.03
2018-06-04T02:04:35.749Z,6.10
2018-06-04T02:09:38.354Z,8.93
2018-06-04T02:14:40.970Z,10.50
2018-06-04T02:19:43.672Z,10.63
2018-06-04T02:24:46.276Z,8.97
2018-06-04T02:29:48.870Z,6.33
2018-06-04T02:34:51.386Z,6.37
2018-06-04T02:39:53.975Z,5.93
2018-06-04T02:44:56.562Z,8.20
2018-06-04T02:49:59.202Z,5.90
2018-06-04T02:55:01.764Z,6.03
2018-06-04T03:00:05.721Z,7.40
2018-06-04T03:05:08.347Z,7.20
2018-06-04T03:10:10.972Z,6.60
2018-06-04T03:15:13.595Z,6.80
2018-06-04T03:20:16.110Z,6.33
2018-06-04T03:25:18.706Z,9.87
2018-06-04T03:30:21.323Z,5.40
2018-06-04T03:35:23.936Z,6.60
2018-06-04T03:40:26.535Z,9.67
2018-06-04T03:45:29.166Z,5.83
2018-06-04T03:50:31.829Z,6.97
2018-06-04T03:55:34.424Z,6.00
2018-06-04T04:00:37.002Z,9.37
2018-06-04T04:05:40.283Z,8.67
2018-06-04T04:10:42.871Z,5.60
2018-06-04T04:15:45.470Z,8.00
2018-06-04T04:20:48.092Z,6.23
2018-06-04T04:25:51.442Z,9.03
2018-06-04T04:30:54.083Z,7.90
2018-06-04T04:35:56.814Z,8.47
2018-06-04T04:40:59.412Z,10.70
2018-06-04T04:46:02.000Z,6.43
2018-06-04T04:51:04.595Z,9.43
2018-06-04T04:56:07.214Z,7.37
2018-06-04T05:01:09.957Z,6.50
2018-06-04T05:06:12.572Z,8.87
2018-06-04T05:11:15.195Z,8.10
2018-06-04T05:16:17.816Z,6.77
2018-06-04T05:21:20.455Z,7.07
2018-06-04T05:26:23.069Z,9.10
2018-06-04T05:31:25.676Z,10.77
2018-06-04T05:36:28.305Z,7.00
2018-06-04T05:41:30.941Z,8.33
2018-06-04T05:46:33.558Z,7.77
2018-06-04T05:51:36.329Z,9.53
2018-06-04T05:56:38.927Z,7.77
2018-06-04T06:01:41.643Z,8.07
2018-06-04T06:06:44.295Z,12.00
2018-06-04T06:11:46.901Z,11.00
2018-06-04T06:16:50.480Z,9.70
2018-06-04T06:21:53.092Z,9.27
2018-06-04T06:26:55.816Z,8.97
2018-06-04T06:31:58.515Z,10.00
2018-06-04T06:37:01.108Z,10.97
2018-06-04T06:42:03.732Z,9.37
2018-06-04T06:47:06.356Z,9.13
2018-06-04T06:52:09.024Z,11.30
2018-06-04T06:57:11.623Z,12.57
2018-06-04T07:02:14.241Z,10.80
2018-06-04T07:07:16.990Z,7.70
2018-06-04T07:12:19.612Z,14.20
2018-06-04T07:17:22.306Z,11.30
2018-06-04T07:22:24.919Z,12.40
2018-06-04T07:27:27.518Z,12.00
2018-06-04T07:32:30.133Z,14.53
2018-06-04T07:37:32.752Z,11.23
2018-06-04T07:42:35.591Z,12.63
2018-06-04T07:47:38.210Z,11.03
2018-06-04T07:52:40.955Z,14.07
2018-06-04T07:57:43.580Z,10.27
2018-06-04T08:02:46.223Z,9.47
2018-06-04T08:07:48.864Z,9.90
2018-06-04T08:12:51.496Z,7.30
2018-06-04T08:17:54.185Z,7.00
2018-06-04T08:22:56.791Z,6.17
2018-06-04T08:27:59.412Z,8.27
2018-06-04T08:33:02.075Z,7.90
2018-06-04T08:38:04.780Z,5.30
2018-06-04T08:43:07.413Z,4.37
2018-06-04T08:48:10.030Z,4.67
2018-06-04T08:53:12.728Z,3.97
2018-06-04T08:58:15.416Z,3.37
2018-06-04T09:03:18.048Z,4.40
2018-06-04T09:08:20.719Z,2.30
2018-06-04T09:13:23.351Z,2.23
2018-06-04T09:23:23.303Z,2.83
2018-06-04T09:28:25.935Z,2.43
2018-06-04T09:33:28.575Z,3.40
2018-06-04T09:38:31.302Z,2.70
2018-06-04T09:43:33.923Z,3.37
2018-06-04T09:48:36.557Z,2.40
2018-06-04T09:53:39.228Z,3.53
2018-06-04T09:58:41.879Z,4.10
2018-06-04T10:03:44.502Z,3.37
2018-06-04T10:08:47.142Z,2.70
2018-06-04T10:13:49.755Z,2.80
2018-06-04T10:18:52.535Z,2.80
2018-06-04T10:23:55.228Z,3.00
2018-06-04T10:28:57.873Z,2.73
2018-06-04T10:34:00.501Z,4.70
2018-06-04T10:39:05.182Z,2.93
2018-06-04T10:44:07.820Z,2.50
2018-06-04T10:49:10.523Z,3.13
2018-06-04T10:54:13.149Z,3.23
2018-06-04T10:59:15.803Z,4.33
2018-06-04T11:04:18.537Z,4.67
2018-06-04T11:09:21.136Z,3.62
2018-06-04T11:14:23.744Z,2.90
2018-06-04T11:19:28.596Z,3.90
2018-06-04T11:24:31.211Z,2.40
2018-06-04T11:29:34.009Z,3.00
2018-06-04T11:34:36.635Z,4.40
2018-06-04T11:39:39.199Z,4.90
2018-06-04T11:44:41.835Z,2.75
2018-06-04T11:49:44.482Z,3.85
2018-06-04T11:54:47.121Z,3.35
2018-06-04T11:59:49.772Z,2.90
2018-06-04T12:04:52.503Z,3.22
2018-06-04T12:09:55.127Z,4.55
2018-06-04T12:14:57.899Z,4.78
2018-06-04T12:20:00.719Z,4.03
2018-06-04T12:25:04.021Z,3.53
2018-06-04T12:30:06.670Z,3.60
2018-06-04T12:35:09.284Z,3.00
2018-06-04T12:40:11.900Z,4.58
2018-06-04T12:45:15.079Z,7.50
2018-06-04T12:50:17.719Z,3.12
2018-06-04T12:55:20.359Z,3.27
2018-06-04T13:00:23.974Z,3.55
2018-06-04T13:05:26.624Z,3.33
2018-06-04T13:10:29.290Z,3.02
2018-06-04T13:15:32.067Z,4.05
2018-06-04T13:20:34.669Z,3.67
2018-06-04T13:25:37.280Z,3.50
2018-06-04T13:30:39.810Z,3.10
2018-06-04T13:35:42.411Z,4.83
2018-06-04T13:40:45.012Z,3.55
2018-06-04T13:45:47.811Z,5.12
2018-06-04T13:50:50.661Z,3.90
2018-06-04T14:00:59.640Z,3.33
2018-06-04T14:06:02.262Z,3.25
2018-06-04T14:11:04.806Z,3.33
2018-06-04T14:16:07.528Z,2.92
2018-06-04T14:21:10.176Z,4.20
2018-06-04T14:26:14.245Z,3.00
2018-06-04T14:31:17.242Z,3.65
2018-06-04T14:36:19.908Z,2.72
2018-06-04T14:41:22.538Z,3.92
2018-06-04T14:46:25.155Z,3.42
2018-06-04T14:51:30.309Z,2.62
2018-06-04T14:56:32.955Z,2.85
2018-06-04T15:01:35.742Z,4.25
2018-06-04T15:06:38.365Z,4.12
2018-06-04T15:11:41.011Z,24.10
2018-06-04T15:16:43.804Z,3.30
2018-06-04T15:21:46.562Z,3.37
2018-06-04T15:26:49.242Z,3.02
2018-06-04T15:31:51.910Z,3.55
2018-06-04T15:36:54.772Z,5.15
2018-06-04T15:41:57.950Z,4.62
2018-06-04T15:47:00.691Z,3.42
2018-06-04T15:52:03.320Z,3.22
2018-06-04T15:57:06.302Z,3.50
2018-06-04T16:02:08.937Z,4.20
2018-06-04T16:07:11.601Z,3.60
2018-06-04T16:12:14.131Z,5.28
2018-06-04T16:17:17.533Z,3.77
2018-06-04T16:22:20.308Z,3.98
2018-06-04T16:27:22.922Z,4.05
2018-06-04T16:32:25.554Z,4.33
2018-06-04T16:37:28.288Z,3.40
2018-06-04T16:42:30.822Z,4.40
2018-06-04T16:47:33.456Z,3.30
2018-06-04T16:52:36.116Z,3.50
2018-06-04T16:57:40.888Z,3.05
2018-06-04T17:02:43.515Z,8.83
2018-06-04T17:07:46.747Z,3.47
2018-06-04T17:12:49.447Z,3.40
2018-06-04T17:17:52.083Z,3.05
2018-06-04T17:22:54.723Z,5.33
2018-06-04T17:27:57.568Z,3.70
2018-06-04T17:33:00.426Z,4.40
2018-06-04T17:38:03.087Z,4.10
2018-06-04T17:43:05.851Z,4.97
2018-06-04T17:48:08.835Z,5.73
2018-06-04T17:53:11.370Z,7.40
2018-06-04T17:58:14.073Z,5.07
2018-06-04T18:03:16.763Z,5.37
2018-06-04T18:08:19.475Z,4.03
2018-06-04T18:13:22.141Z,5.23
2018-06-04T18:18:25.411Z,4.67
2018-06-04T18:23:28.059Z,7.23
2018-06-04T18:28:30.719Z,4.70
2018-06-04T18:33:33.359Z,6.00
2018-06-04T18:38:36.057Z,7.77
2018-06-04T18:43:38.715Z,4.97
2018-06-04T18:49:03.927Z,5.10
2018-06-04T18:54:43.943Z,4.37
2018-06-04T19:00:16.841Z,4.57
2018-06-04T19:05:57.131Z,7.33
2018-06-04T19:11:37.375Z,5.70
2018-06-04T19:17:17.550Z,5.30
2018-06-04T19:22:57.866Z,5.93
2018-06-04T19:28:38.102Z,9.97
2018-06-04T19:34:18.222Z,5.67
2018-06-04T19:39:58.381Z,7.93
2018-06-04T19:45:38.747Z,7.37
2018-06-04T19:51:18.985Z,5.63
2018-06-04T19:56:59.216Z,7.33
2018-06-04T20:02:40.237Z,6.47
2018-06-04T20:08:21.520Z,5.33
2018-06-04T20:14:01.866Z,6.92
2018-06-04T20:19:42.981Z,8.23
2018-06-04T20:25:23.999Z,8.03
2018-06-04T20:31:04.152Z,8.13
2018-06-04T20:36:14.517Z,9.23
2018-06-04T20:41:17.126Z,6.33
2018-06-04T20:46:19.736Z,6.90
2018-06-04T20:51:22.370Z,7.60
2018-06-04T20:56:25.030Z,5.50
2018-06-04T21:01:27.655Z,6.30
2018-06-04T21:06:30.248Z,6.30
2018-06-04T21:11:32.957Z,10.67
2018-06-04T21:16:35.681Z,9.43
2018-06-04T21:21:38.270Z,8.83
2018-06-04T21:26:40.843Z,7.87
2018-06-04T21:31:43.527Z,6.27
2018-06-04T21:36:46.117Z,7.13
2018-06-04T21:41:48.745Z,10.87
2018-06-04T21:46:51.451Z,7.00
2018-06-04T21:51:54.037Z,7.50
2018-06-04T21:56:56.660Z,10.83
2018-06-04T22:01:59.427Z,9.57
2018-06-04T22:07:01.968Z,7.30
2018-06-04T22:12:05.715Z,7.77
2018-06-04T22:17:08.285Z,11.20
2018-06-04T22:22:10.847Z,8.33
2018-06-04T22:27:14.398Z,9.27
2018-06-04T22:32:16.947Z,7.87
2018-06-04T22:37:19.557Z,7.00
2018-06-04T22:42:22.220Z,8.10
2018-06-04T22:47:24.835Z,8.83
2018-06-04T22:52:27.487Z,8.40
2018-06-04T22:57:30.103Z,7.60
2018-06-04T23:02:32.850Z,12.10
2018-06-04T23:07:35.484Z,11.40
2018-06-04T23:12:38.118Z,12.13
2018-06-04T23:17:40.722Z,8.13
2018-06-04T23:22:43.315Z,10.43
2018-06-04T23:27:45.958Z,9.00
2018-06-04T23:32:48.558Z,9.67
2018-06-04T23:37:51.155Z,8.57
2018-06-04T23:42:53.738Z,8.13
2018-06-04T23:47:56.370Z,9.20
2018-06-04T23:52:58.973Z,8.50
2018-06-04T23:58:01.689Z,13.53
